createdAt,value
2023-03-20T00:29:06.919Z,0
2023-03-20T00:29:47.311Z,0
2023-03-20T00:30:27.819Z,0
2023-03-20T00:31:08.434Z,0
2023-03-20T00:31:49.844Z,0
2023-03-20T00:32:29.322Z,0
2023-03-20T00:33:09.970Z,0
2023-03-20T00:33:50.286Z,0
2023-03-20T00:34:30.802Z,0
2023-03-20T00:35:11.342Z,0
2023-03-20T00:35:51.814Z,0
2023-03-20T00:42:36.778Z,0
2023-03-20T00:43:17.221Z,0
2023-03-20T00:43:57.734Z,0
2023-03-20T00:47:11.462Z,0
2023-03-20T00:47:51.870Z,0
2023-03-20T00:48:32.399Z,0
2023-03-20T00:49:12.893Z,0
2023-03-20T00:49:53.426Z,0
2023-03-20T00:50:33.961Z,0
2023-03-20T00:51:14.395Z,0
2023-03-20T00:51:54.884Z,0
2023-03-20T00:52:35.358Z,0
2023-03-20T00:53:15.860Z,0
2023-03-20T00:53:56.314Z,0
2023-03-20T01:00:41.376Z,0
2023-03-20T01:01:21.878Z,0
2023-03-20T01:02:02.453Z,0
2023-03-20T01:02:42.886Z,0
2023-03-20T01:03:23.362Z,0
2023-03-20T01:04:03.929Z,0
2023-03-20T01:04:44.397Z,0
2023-03-20T01:05:24.944Z,0
2023-03-20T01:06:05.432Z,0
2023-03-20T01:06:45.931Z,0
2023-03-20T01:07:26.412Z,0
2023-03-20T01:14:11.457Z,0
2023-03-20T01:14:51.948Z,0
2023-03-20T01:15:32.433Z,0
2023-03-20T01:16:12.984Z,0
2023-03-20T01:16:53.645Z,0
2023-03-20T01:17:33.962Z,0
2023-03-20T01:18:14.524Z,0
2023-03-20T01:18:54.942Z,0
2023-03-20T01:19:35.500Z,0
2023-03-20T01:20:16.019Z,0
2023-03-20T01:26:21.254Z,0
2023-03-20T01:27:01.729Z,0
2023-03-20T01:27:42.207Z,0
2023-03-20T01:28:22.792Z,0
2023-03-20T01:29:03.208Z,0
2023-03-20T01:29:43.736Z,0
2023-03-20T01:30:24.274Z,0
2023-03-20T01:31:04.769Z,0
2023-03-20T01:31:45.304Z,0
2023-03-20T01:32:25.759Z,0
2023-03-20T01:33:06.322Z,0
2023-03-20T01:39:51.428Z,0
2023-03-20T01:40:31.935Z,0
2023-03-20T01:41:12.495Z,0
2023-03-20T01:41:53.000Z,0
2023-03-20T01:42:33.422Z,0
2023-03-20T01:43:13.883Z,0
2023-03-20T01:43:54.393Z,0
2023-03-20T01:47:09.557Z,0
2023-03-20T01:47:50.541Z,0
2023-03-20T01:48:31.501Z,0
2023-03-20T01:49:12.599Z,0
2023-03-20T01:49:53.676Z,0
2023-03-20T01:53:59.665Z,0
2023-03-20T01:54:40.712Z,0
2023-03-20T01:55:21.666Z,0
2023-03-20T01:56:02.643Z,0
2023-03-20T01:56:43.661Z,0
2023-03-20T01:57:24.653Z,0
2023-03-20T02:00:49.610Z,0
2023-03-20T02:01:30.730Z,0
2023-03-20T02:02:11.606Z,0
2023-03-20T02:02:52.632Z,0
2023-03-20T02:03:33.500Z,0
2023-03-20T02:07:39.627Z,0
2023-03-20T02:08:20.576Z,0
2023-03-20T02:09:01.589Z,0
2023-03-20T02:09:42.575Z,0
2023-03-20T02:10:23.593Z,0
2023-03-20T02:11:04.567Z,0
2023-03-20T02:14:29.504Z,0
2023-03-20T02:15:10.487Z,0
2023-03-20T02:15:51.661Z,0
2023-03-20T02:16:32.625Z,0
2023-03-20T02:17:13.627Z,0
2023-03-20T02:17:54.599Z,0
2023-03-20T02:21:19.843Z,0
2023-03-20T02:22:00.855Z,0
2023-03-20T02:22:41.850Z,0
2023-03-20T02:23:22.968Z,0
2023-03-20T02:24:03.933Z,0
2023-03-20T02:27:28.896Z,0
2023-03-20T02:28:09.965Z,0
2023-03-20T02:28:50.933Z,0
2023-03-20T02:29:31.948Z,0
2023-03-20T02:30:12.931Z,0
2023-03-20T02:30:53.918Z,0
2023-03-20T02:34:59.850Z,0
2023-03-20T02:35:40.879Z,0
2023-03-20T02:36:21.921Z,0
2023-03-20T02:37:02.933Z,0
2023-03-20T02:37:43.981Z,0
2023-03-20T02:41:09.064Z,0
2023-03-20T02:41:50.036Z,0
2023-03-20T02:42:33.706Z,0
2023-03-20T02:43:11.998Z,0
2023-03-20T02:44:34.009Z,0
2023-03-20T02:47:59.070Z,0
2023-03-20T02:48:40.183Z,0
2023-03-20T02:49:21.215Z,0
2023-03-20T02:50:02.158Z,0
2023-03-20T02:50:43.166Z,0
2023-03-20T02:51:24.247Z,0
2023-03-20T02:54:49.357Z,0
2023-03-20T02:55:30.427Z,0
2023-03-20T02:56:11.576Z,0
2023-03-20T02:56:52.532Z,0
2023-03-20T02:57:33.535Z,0
2023-03-20T02:58:14.570Z,0
2023-03-20T03:01:39.571Z,0
2023-03-20T03:02:20.582Z,0
2023-03-20T03:03:01.644Z,0
2023-03-20T03:03:42.683Z,0
2023-03-20T03:04:23.695Z,0
2023-03-20T03:08:29.881Z,0
2023-03-20T03:09:10.881Z,0
2023-03-20T03:09:51.918Z,0
2023-03-20T03:10:32.875Z,0
2023-03-20T03:11:13.872Z,0
2023-03-20T03:14:38.925Z,0
2023-03-20T03:15:19.904Z,0
2023-03-20T03:16:00.921Z,0
2023-03-20T03:16:41.928Z,0
2023-03-20T03:17:22.895Z,0
2023-03-20T03:18:03.889Z,0
2023-03-20T03:21:29.092Z,0
2023-03-20T03:22:10.076Z,0
2023-03-20T03:22:51.137Z,0
2023-03-20T03:23:32.138Z,0
2023-03-20T03:24:13.138Z,0
2023-03-20T03:24:54.102Z,0
2023-03-20T03:28:19.247Z,0
2023-03-20T03:29:00.185Z,0
2023-03-20T03:29:41.144Z,0
2023-03-20T03:30:22.146Z,0
2023-03-20T03:31:03.212Z,0
2023-03-20T03:31:44.129Z,0
2023-03-20T03:35:09.288Z,0
2023-03-20T03:35:50.282Z,0
2023-03-20T03:36:31.312Z,0
2023-03-20T03:37:12.416Z,0
2023-03-20T03:38:34.547Z,0
2023-03-20T03:41:59.621Z,0
2023-03-20T03:42:40.606Z,0
2023-03-20T03:43:21.571Z,0
2023-03-20T03:44:02.592Z,0
2023-03-20T03:44:43.539Z,0
2023-03-20T03:45:24.579Z,0
2023-03-20T03:48:49.629Z,0
2023-03-20T03:49:30.643Z,0
2023-03-20T03:50:11.614Z,0
2023-03-20T03:50:52.687Z,0
2023-03-20T03:51:33.754Z,0
2023-03-20T03:55:40.064Z,0
2023-03-20T03:56:20.890Z,0
2023-03-20T03:57:01.763Z,0
2023-03-20T03:57:42.742Z,0
2023-03-20T04:02:29.773Z,0
2023-03-20T04:03:10.747Z,0
2023-03-20T04:03:51.754Z,0
2023-03-20T04:04:32.834Z,0
2023-03-20T04:05:13.867Z,0
2023-03-20T04:08:39.051Z,0
2023-03-20T04:09:20.186Z,0
2023-03-20T04:10:01.127Z,0
2023-03-20T04:10:42.211Z,0
2023-03-20T04:11:23.126Z,0
2023-03-20T04:12:04.113Z,0
2023-03-20T04:15:29.086Z,0
2023-03-20T04:16:10.139Z,0
2023-03-20T04:16:51.090Z,0
2023-03-20T04:17:32.090Z,0
2023-03-20T04:18:13.066Z,0
2023-03-20T04:18:54.071Z,0
2023-03-20T04:22:19.146Z,0
2023-03-20T04:23:00.173Z,0
2023-03-20T04:23:41.110Z,0
2023-03-20T04:24:22.155Z,0
2023-03-20T04:25:03.098Z,0
2023-03-20T04:25:44.182Z,0
2023-03-20T04:29:09.154Z,0
2023-03-20T04:29:50.246Z,0
2023-03-20T04:30:31.261Z,0
2023-03-20T04:31:12.278Z,0
2023-03-20T04:31:53.265Z,0
2023-03-20T04:32:34.255Z,0
2023-03-20T04:35:59.322Z,0
2023-03-20T04:36:40.306Z,0
2023-03-20T04:37:21.328Z,0
2023-03-20T04:38:02.347Z,0
2023-03-20T04:38:43.460Z,0
2023-03-20T04:39:24.454Z,0
2023-03-20T04:42:49.670Z,0
2023-03-20T04:43:30.660Z,0
2023-03-20T04:44:11.649Z,0
2023-03-20T04:44:52.644Z,0
2023-03-20T04:45:33.868Z,0
2023-03-20T04:49:39.784Z,0
2023-03-20T04:50:20.822Z,0
2023-03-20T04:51:01.814Z,0
2023-03-20T04:51:42.821Z,0
2023-03-20T04:52:23.852Z,0
2023-03-20T04:57:20.998Z,0
2023-03-20T04:58:01.346Z,0
2023-03-20T04:58:41.940Z,0
2023-03-20T04:59:22.384Z,0
2023-03-20T05:00:02.884Z,0
2023-03-20T05:00:43.451Z,0
2023-03-20T05:01:23.944Z,0
2023-03-20T05:02:04.360Z,0
2023-03-20T05:02:44.843Z,0
2023-03-20T05:03:25.372Z,0
2023-03-20T05:04:05.834Z,0
2023-03-20T05:11:31.122Z,0
2023-03-20T05:12:11.612Z,0
2023-03-20T05:12:52.061Z,0
2023-03-20T05:13:32.596Z,0
2023-03-20T05:14:13.015Z,0
2023-03-20T05:14:53.517Z,4
2023-03-20T05:15:34.242Z,4
2023-03-20T05:16:54.996Z,0
2023-03-20T05:17:35.487Z,4
2023-03-20T05:18:15.931Z,0
2023-03-20T05:23:40.729Z,4
2023-03-20T05:25:41.191Z,12
2023-03-20T05:26:21.663Z,12
2023-03-20T05:27:02.173Z,12
2023-03-20T05:27:42.662Z,12
2023-03-20T05:28:23.136Z,12
2023-03-20T05:29:04.226Z,16
2023-03-20T05:29:44.091Z,16
2023-03-20T05:30:24.587Z,20
2023-03-20T05:31:05.171Z,20
2023-03-20T05:31:45.588Z,24
2023-03-20T05:39:10.880Z,48
2023-03-20T05:39:51.390Z,48
2023-03-20T05:40:31.905Z,48
2023-03-20T05:41:12.386Z,52
2023-03-20T05:41:52.814Z,52
2023-03-20T05:42:33.319Z,56
2023-03-20T05:43:13.806Z,60
2023-03-20T05:44:34.790Z,64
2023-03-20T05:45:15.308Z,68
2023-03-20T05:45:55.893Z,68
2023-03-20T06:31:34.985Z,436
2023-03-20T06:32:14.404Z,456
2023-03-20T06:32:55.016Z,468
2023-03-20T06:33:35.501Z,484
2023-03-20T06:34:15.938Z,504
2023-03-20T06:34:56.427Z,520
2023-03-20T06:35:37.219Z,536
2023-03-20T06:36:17.471Z,552
2023-03-20T06:36:57.924Z,564
2023-03-20T06:37:38.531Z,572
2023-03-20T06:43:43.292Z,1108
2023-03-20T06:44:24.464Z,1248
2023-03-20T06:45:04.984Z,1268
2023-03-20T06:45:45.465Z,1324
2023-03-20T06:46:26.006Z,1308
2023-03-20T06:47:06.508Z,1268
2023-03-20T06:47:47.039Z,1328
2023-03-20T06:48:27.639Z,2916
2023-03-20T06:49:08.949Z,1680
2023-03-20T06:53:53.454Z,824
2023-03-20T06:54:33.980Z,840
2023-03-20T06:55:14.563Z,876
2023-03-20T06:55:55.208Z,932
2023-03-20T06:56:35.675Z,996
2023-03-20T07:00:15.996Z,1192
2023-03-20T07:00:57.714Z,1204
2023-03-20T07:01:38.445Z,1212
2023-03-20T07:02:18.953Z,1236
2023-03-20T07:03:01.774Z,1272
2023-03-20T07:03:40.021Z,1332
2023-03-20T07:09:45.725Z,1920
2023-03-20T07:10:26.292Z,1980
2023-03-20T07:11:07.527Z,2104
2023-03-20T07:11:48.109Z,2316
2023-03-20T07:12:28.677Z,2408
2023-03-20T07:13:09.261Z,2636
2023-03-20T07:13:50.096Z,2580
2023-03-20T07:18:37.231Z,1132
2023-03-20T07:19:17.727Z,1136
2023-03-20T07:19:59.633Z,1060
2023-03-20T07:20:40.945Z,1020
2023-03-20T07:21:22.772Z,1004
2023-03-20T07:22:02.792Z,1192
2023-03-20T07:22:44.101Z,1116
2023-03-20T07:23:27.583Z,964
2023-03-20T07:27:23.446Z,676
2023-03-20T07:28:03.969Z,656
2023-03-20T07:28:44.512Z,632
2023-03-20T07:29:24.947Z,612
2023-03-20T07:30:05.522Z,592
2023-03-20T07:30:46.067Z,576
2023-03-20T07:31:26.567Z,568
2023-03-20T07:32:07.091Z,556
2023-03-20T07:32:47.626Z,552
2023-03-20T07:33:28.154Z,544
2023-03-20T07:37:33.697Z,576
2023-03-20T07:42:48.520Z,604
2023-03-20T07:43:29.653Z,604
2023-03-20T07:44:10.933Z,608
2023-03-20T07:44:53.949Z,616
2023-03-20T07:45:41.214Z,628
2023-03-20T07:46:22.260Z,640
2023-03-20T07:47:03.381Z,652
2023-03-20T07:50:23.937Z,688
2023-03-20T07:51:04.416Z,696
2023-03-20T07:51:47.170Z,708
2023-03-20T07:52:28.156Z,720
2023-03-20T07:57:30.720Z,728
2023-03-20T07:58:13.787Z,736
2023-03-20T07:58:54.921Z,736
2023-03-20T08:03:43.964Z,768
2023-03-20T08:04:24.447Z,784
2023-03-20T08:05:04.926Z,804
2023-03-20T08:05:47.282Z,820
2023-03-20T08:06:26.030Z,840
2023-03-20T08:07:06.620Z,860
2023-03-20T08:07:47.218Z,884
2023-03-20T08:08:27.755Z,904
2023-03-20T08:09:08.400Z,912
2023-03-20T08:11:53.650Z,916
2023-03-20T08:12:34.269Z,908
2023-03-20T08:13:14.818Z,896
2023-03-20T08:13:55.746Z,888
2023-03-20T08:14:36.316Z,880
2023-03-20T08:19:00.614Z,956
2023-03-20T08:19:41.248Z,984
2023-03-20T08:20:22.022Z,1012
2023-03-20T08:21:03.149Z,1024
2023-03-20T08:21:43.742Z,1032
2023-03-20T08:25:19.324Z,1000
2023-03-20T08:25:59.910Z,996
2023-03-20T08:26:40.400Z,1000
2023-03-20T08:27:20.906Z,1000
2023-03-20T08:28:02.231Z,1000
2023-03-20T08:28:47.734Z,1008
2023-03-20T08:29:23.314Z,1012
2023-03-20T08:30:03.896Z,1024
2023-03-20T08:33:33.884Z,1080
2023-03-20T08:34:14.714Z,1072
2023-03-20T08:34:55.924Z,1072
2023-03-20T08:35:37.633Z,1064
2023-03-20T08:36:18.817Z,1064
2023-03-20T08:48:19.033Z,1132
2023-03-20T08:48:59.445Z,1196
2023-03-20T08:49:40.124Z,1216
2023-03-20T08:50:20.618Z,1124
2023-03-20T08:51:01.861Z,1140
2023-03-20T08:51:42.501Z,1180
2023-03-20T08:52:23.144Z,1096
2023-03-20T08:55:08.437Z,1032
2023-03-20T08:55:48.985Z,1032
2023-03-20T08:56:29.631Z,1004
2023-03-20T08:57:10.292Z,1092
2023-03-20T08:57:51.647Z,1128
2023-03-20T09:00:07.583Z,1448
2023-03-20T09:00:49.202Z,1580
2023-03-20T09:01:41.948Z,1656
2023-03-20T09:02:11.102Z,1700
2023-03-20T09:02:52.094Z,1676
2023-03-20T09:04:56.852Z,1832
2023-03-20T09:05:38.625Z,1928
2023-03-20T09:06:20.013Z,1948
2023-03-20T09:07:00.672Z,1892
2023-03-20T09:07:41.499Z,1872
2023-03-20T09:09:46.969Z,1704
2023-03-20T09:12:21.062Z,1584
2023-03-20T09:13:07.267Z,1536
2023-03-20T09:15:49.631Z,1368
2023-03-20T09:16:36.164Z,1248
2023-03-20T09:17:25.477Z,1200
2023-03-20T09:19:35.089Z,1112
2023-03-20T09:20:15.151Z,1148
2023-03-20T09:20:55.746Z,1184
2023-03-20T09:21:36.489Z,1184
2023-03-20T09:22:17.224Z,1176
2023-03-20T09:22:57.872Z,1104
2023-03-20T09:23:38.506Z,984
2023-03-20T09:24:19.971Z,892
2023-03-20T09:25:44.118Z,1004
2023-03-20T09:26:25.332Z,1100
2023-03-20T09:27:06.786Z,1128
2023-03-20T09:27:47.249Z,1124
2023-03-20T09:28:27.813Z,1140
2023-03-20T09:29:09.226Z,1152
2023-03-20T09:35:18.868Z,1880
2023-03-20T09:36:02.863Z,1876
2023-03-20T09:36:45.907Z,1864
2023-03-20T09:37:27.227Z,1836
2023-03-20T09:38:09.758Z,1800
2023-03-20T09:38:50.926Z,1756
2023-03-20T09:39:31.900Z,1724
2023-03-20T09:40:12.991Z,1688
2023-03-20T09:42:18.701Z,1576
2023-03-20T09:42:59.758Z,1544
2023-03-20T09:43:41.512Z,1524
2023-03-20T09:44:22.571Z,1500
2023-03-20T09:47:20.101Z,1412
2023-03-20T09:47:53.261Z,1388
2023-03-20T09:50:38.675Z,1344
2023-03-20T09:51:19.482Z,1340
2023-03-20T09:52:00.678Z,1336
2023-03-20T09:52:41.616Z,1324
2023-03-20T09:53:22.983Z,1320
2023-03-20T09:56:45.970Z,1312
2023-03-20T09:57:27.817Z,1320
2023-03-20T09:58:08.994Z,1328
2023-03-20T09:58:49.572Z,1344
2023-03-20T10:00:55.237Z,1396
2023-03-20T10:01:37.715Z,1416
2023-03-20T10:02:17.404Z,1436
2023-03-20T10:02:58.136Z,1456
2023-03-20T10:07:31.194Z,1596
2023-03-20T10:08:13.878Z,1608
2023-03-20T10:08:55.884Z,1612
2023-03-20T10:09:37.280Z,1616
2023-03-20T10:11:41.513Z,1636
2023-03-20T10:12:24.369Z,1632
2023-03-20T10:13:05.456Z,1628
2023-03-20T10:13:46.535Z,1620
2023-03-20T10:18:10.506Z,1536
2023-03-20T10:18:50.957Z,1524
2023-03-20T10:19:31.655Z,1508
2023-03-20T10:20:12.236Z,1496
2023-03-20T10:20:52.747Z,1480
2023-03-20T10:21:33.288Z,1464
2023-03-20T10:23:48.065Z,1456
2023-03-20T10:24:29.609Z,1452
2023-03-20T10:25:10.074Z,1424
2023-03-20T10:25:51.123Z,1384
2023-03-20T10:36:42.144Z,912
2023-03-20T10:37:22.211Z,920
2023-03-20T10:38:02.771Z,924
2023-03-20T10:38:43.391Z,928
2023-03-20T10:39:23.983Z,940
2023-03-20T10:40:04.518Z,944
2023-03-20T10:40:45.028Z,952
2023-03-20T10:41:25.544Z,952
2023-03-20T10:42:06.086Z,948
2023-03-20T10:46:49.676Z,992
2023-03-20T10:47:31.554Z,992
2023-03-20T10:48:11.740Z,1008
2023-03-20T10:48:52.561Z,1012
2023-03-20T10:54:17.849Z,920
2023-03-20T10:54:58.484Z,912
2023-03-20T10:55:39.857Z,912
2023-03-20T10:56:20.902Z,904
2023-03-20T10:57:01.668Z,904
2023-03-20T10:57:42.440Z,904
2023-03-20T10:59:48.479Z,908
2023-03-20T11:00:32.637Z,916
2023-03-20T11:04:38.880Z,852
2023-03-20T11:05:19.922Z,832
2023-03-20T11:06:09.132Z,812
2023-03-20T11:06:42.495Z,804
2023-03-20T11:08:57.273Z,796
2023-03-20T11:09:37.674Z,804
2023-03-20T11:10:19.000Z,812
2023-03-20T11:11:00.483Z,820
2023-03-20T11:14:28.755Z,728
2023-03-20T11:15:09.344Z,700
2023-03-20T11:15:51.807Z,680
2023-03-20T11:16:32.427Z,664
2023-03-20T11:17:13.100Z,656
2023-03-20T11:23:12.272Z,708
2023-03-20T11:23:52.389Z,720
2023-03-20T11:27:14.974Z,712
2023-03-20T11:27:56.764Z,716
2023-03-20T11:28:38.198Z,732
2023-03-20T11:29:19.440Z,764
2023-03-20T11:33:04.090Z,1028
2023-03-20T11:36:25.338Z,1256
2023-03-20T11:37:10.377Z,1292
2023-03-20T11:37:48.682Z,1320
2023-03-20T11:40:51.635Z,1332
2023-03-20T11:41:32.182Z,1332
2023-03-20T11:42:12.929Z,1336
2023-03-20T11:42:53.727Z,1336
2023-03-20T11:43:34.090Z,1340
2023-03-20T11:44:15.616Z,1348
2023-03-20T11:44:56.349Z,1348
2023-03-20T11:51:50.055Z,1320
2023-03-20T11:52:31.225Z,1304
2023-03-20T11:53:12.358Z,1292
2023-03-20T12:31:55.861Z,1696
2023-03-20T12:32:36.524Z,1712
2023-03-20T12:33:16.962Z,1724
2023-03-20T12:33:58.089Z,1724
2023-03-20T12:34:38.610Z,1720
2023-03-20T12:35:19.760Z,1696
2023-03-20T12:36:00.313Z,1672
2023-03-20T12:42:05.128Z,1524
2023-03-20T12:42:45.673Z,1496
2023-03-20T12:43:26.245Z,1468
2023-03-20T12:44:06.808Z,1448
2023-03-20T12:53:02.344Z,1604
2023-03-20T12:53:42.795Z,1592
2023-03-20T12:54:23.330Z,1576
2023-03-20T12:55:03.914Z,1564
2023-03-20T12:55:44.394Z,1548
2023-03-20T12:56:25.018Z,1528
2023-03-20T12:57:05.606Z,1516
2023-03-20T12:57:46.653Z,1512
2023-03-20T12:58:26.727Z,1512
2023-03-20T13:05:12.097Z,1388
2023-03-20T13:05:52.632Z,1400
2023-03-20T13:06:33.394Z,1412
2023-03-20T13:07:13.891Z,1420
2023-03-20T13:07:54.400Z,1412
2023-03-20T13:08:35.008Z,1400
2023-03-20T13:09:15.487Z,1388
2023-03-20T13:09:56.055Z,1372
2023-03-20T13:10:37.022Z,1360
2023-03-20T13:16:42.404Z,1272
2023-03-20T13:20:45.098Z,1176
2023-03-20T13:21:25.804Z,1152
2023-03-20T13:22:06.397Z,1140
2023-03-20T13:22:47.098Z,1148
2023-03-20T13:23:27.703Z,1156
2023-03-20T13:24:08.629Z,1168
2023-03-20T13:24:48.772Z,1176
2023-03-20T13:25:29.567Z,1188
2023-03-20T13:30:54.696Z,1388
2023-03-20T13:31:35.316Z,1388
2023-03-20T13:32:15.792Z,1376
2023-03-20T13:32:56.563Z,1372
2023-03-20T13:33:36.876Z,1364
2023-03-20T13:34:18.287Z,1372
2023-03-20T13:34:58.990Z,1380
2023-03-20T13:35:39.673Z,1392
2023-03-20T13:41:44.724Z,1436
2023-03-20T13:42:25.335Z,1436
2023-03-20T13:43:05.794Z,1428
2023-03-20T13:43:46.493Z,1420
2023-03-20T13:44:27.022Z,1412
2023-03-20T13:45:08.105Z,1408
2023-03-20T13:45:48.686Z,1400
2023-03-20T13:46:29.236Z,1384
2023-03-20T13:47:09.779Z,1372
2023-03-20T13:53:42.672Z,1196
2023-03-20T13:54:22.937Z,1180
2023-03-20T13:55:03.597Z,1176
2023-03-20T13:55:44.039Z,1184
2023-03-20T13:56:24.558Z,1192
2023-03-20T13:57:05.096Z,1204
2023-03-20T13:57:45.571Z,1212
2023-03-20T13:58:26.096Z,1216
2023-03-20T13:59:06.653Z,1220
2023-03-20T13:59:47.163Z,1228
2023-03-20T14:09:02.958Z,1192
2023-03-20T14:09:44.055Z,1200
2023-03-20T14:10:25.213Z,1204
2023-03-20T14:11:06.388Z,1200
2023-03-20T14:11:47.961Z,1192
2023-03-20T14:16:08.941Z,1332
2023-03-20T14:16:50.069Z,1332
2023-03-20T14:17:30.739Z,1348
2023-03-20T14:18:11.194Z,1360
2023-03-20T14:18:51.902Z,1376
2023-03-20T14:19:32.469Z,1400
2023-03-20T14:20:13.059Z,1356
2023-03-20T14:26:18.553Z,956
2023-03-20T14:26:59.036Z,920
2023-03-20T14:27:44.621Z,888
2023-03-20T14:28:20.369Z,860
2023-03-20T14:29:00.859Z,844
2023-03-20T14:29:41.434Z,824
2023-03-20T14:30:22.574Z,800
2023-03-20T14:31:03.168Z,772
2023-03-20T14:37:48.688Z,700
2023-03-20T14:38:29.179Z,716
2023-03-20T14:39:09.741Z,736
2023-03-20T14:39:50.296Z,768
2023-03-20T14:40:30.831Z,796
2023-03-20T14:41:11.509Z,824
2023-03-20T14:41:51.854Z,848
2023-03-20T14:42:32.512Z,864
2023-03-20T14:43:13.139Z,868
2023-03-20T14:43:53.921Z,872
2023-03-20T14:49:18.365Z,876
2023-03-20T14:49:58.987Z,884
2023-03-20T14:50:39.808Z,888
2023-03-20T14:51:19.953Z,884
2023-03-20T14:52:00.504Z,880
2023-03-20T14:52:40.984Z,876
2023-03-20T14:53:21.514Z,876
2023-03-20T14:54:02.161Z,884
2023-03-20T14:54:42.594Z,892
2023-03-20T14:57:57.616Z,912
2023-03-20T15:03:04.922Z,812
2023-03-20T15:03:45.348Z,804
2023-03-20T15:04:25.843Z,796
2023-03-20T15:05:06.423Z,788
2023-03-20T15:05:46.911Z,780
2023-03-20T15:06:27.482Z,772
2023-03-20T15:07:09.377Z,764
2023-03-20T15:13:12.547Z,824
2023-03-20T15:13:52.952Z,852
2023-03-20T15:14:33.464Z,876
2023-03-20T15:15:14.021Z,896
2023-03-20T15:15:54.563Z,908
2023-03-20T15:16:35.181Z,916
2023-03-20T15:17:16.828Z,920
2023-03-20T15:23:21.603Z,916
2023-03-20T15:24:02.683Z,908
2023-03-20T15:24:43.323Z,888
2023-03-20T15:25:23.862Z,860
2023-03-20T15:26:07.267Z,824
2023-03-20T15:28:52.027Z,720
2023-03-20T15:45:29.611Z,608
2023-03-20T15:46:19.109Z,620
2023-03-20T15:46:50.893Z,636
2023-03-20T15:47:31.445Z,644
2023-03-20T15:48:11.922Z,652
2023-03-20T15:48:52.436Z,652
2023-03-20T15:49:32.971Z,652
2023-03-20T15:50:13.488Z,648
2023-03-20T15:50:53.982Z,652
2023-03-20T15:51:34.571Z,652
2023-03-20T15:57:39.481Z,544
2023-03-20T15:58:20.077Z,532
2023-03-20T15:59:00.519Z,516
2023-03-20T15:59:41.037Z,504
2023-03-20T16:00:21.566Z,496
2023-03-20T16:01:02.255Z,488
2023-03-20T16:01:42.917Z,480
2023-03-20T16:02:23.398Z,476
2023-03-20T16:03:03.878Z,468
2023-03-20T16:10:29.643Z,404
2023-03-20T16:11:10.196Z,396
2023-03-20T16:11:50.752Z,392
2023-03-20T16:12:31.210Z,384
2023-03-20T16:13:11.757Z,380
2023-03-20T16:13:52.354Z,376
2023-03-20T16:14:32.837Z,372
2023-03-20T16:15:13.331Z,372
2023-03-20T16:15:53.870Z,368
2023-03-20T16:23:19.721Z,308
2023-03-20T16:24:00.177Z,300
2023-03-20T16:24:40.694Z,288
2023-03-20T16:25:21.174Z,280
2023-03-20T16:26:01.760Z,272
2023-03-20T16:26:42.239Z,260
2023-03-20T16:27:22.880Z,248
2023-03-20T16:28:03.493Z,244
2023-03-20T16:28:43.959Z,236
2023-03-20T16:34:49.617Z,240
2023-03-20T16:35:29.991Z,236
2023-03-20T16:36:10.688Z,240
2023-03-20T16:36:50.979Z,236
2023-03-20T16:37:31.468Z,236
2023-03-20T16:38:11.992Z,240
2023-03-20T16:38:52.506Z,236
2023-03-20T16:39:33.717Z,224
2023-03-20T16:40:14.187Z,216
2023-03-20T16:44:19.602Z,172
2023-03-20T16:45:00.115Z,164
2023-03-20T16:45:42.373Z,160
2023-03-20T16:46:21.219Z,160
2023-03-20T16:47:42.306Z,156
2023-03-20T16:48:22.753Z,148
2023-03-20T16:49:03.297Z,148
2023-03-20T16:49:43.747Z,144
2023-03-20T16:50:24.292Z,140
2023-03-20T16:57:09.625Z,108
2023-03-20T16:57:50.021Z,104
2023-03-20T16:58:30.552Z,104
2023-03-20T16:59:11.106Z,100
2023-03-20T16:59:51.640Z,100
2023-03-20T17:00:32.096Z,96
2023-03-20T17:01:12.699Z,92
2023-03-20T17:01:53.355Z,92
2023-03-20T17:03:14.327Z,88
2023-03-20T17:09:19.891Z,72
2023-03-20T17:10:00.365Z,72
2023-03-20T17:10:40.912Z,68
2023-03-20T17:11:21.548Z,68
2023-03-20T17:12:02.040Z,68
2023-03-20T17:12:42.563Z,68
2023-03-20T17:13:23.168Z,64
2023-03-20T17:14:03.729Z,64
2023-03-20T17:14:44.196Z,60
2023-03-20T17:21:37.720Z,44
2023-03-20T17:22:18.498Z,40
2023-03-20T17:22:58.959Z,44
2023-03-20T17:23:39.512Z,40
2023-03-20T17:24:20.113Z,44
2023-03-20T17:25:01.167Z,48
2023-03-20T17:25:41.275Z,44
2023-03-20T17:26:21.919Z,44
2023-03-20T17:31:46.980Z,32
2023-03-20T17:35:01.048Z,24
2023-03-20T17:35:41.675Z,24
2023-03-20T17:36:22.035Z,20
2023-03-20T17:37:02.603Z,20
2023-03-20T17:37:43.033Z,20
2023-03-20T17:38:23.568Z,16
2023-03-20T17:39:04.067Z,16
2023-03-20T17:39:44.639Z,16
2023-03-20T17:40:25.243Z,16
2023-03-20T17:46:30.554Z,8
2023-03-20T17:47:10.971Z,4
2023-03-20T17:47:51.529Z,8
2023-03-20T17:48:32.161Z,4
2023-03-20T17:49:12.829Z,4
2023-03-20T17:49:53.393Z,4
2023-03-20T17:50:34.094Z,4
2023-03-20T17:51:14.584Z,4
2023-03-20T17:51:55.139Z,4
2023-03-20T17:52:35.880Z,4
2023-03-20T18:33:41.726Z,0
2023-03-20T18:34:22.384Z,0
2023-03-20T18:35:03.183Z,0
2023-03-20T18:35:43.793Z,0
2023-03-20T18:36:24.295Z,0
2023-03-20T18:37:04.969Z,0
2023-03-20T18:37:45.658Z,0
2023-03-20T18:38:26.167Z,0
2023-03-20T18:39:06.744Z,0
2023-03-20T18:44:50.764Z,0
2023-03-20T18:45:30.648Z,0
2023-03-20T18:46:11.995Z,0
2023-03-20T18:46:52.660Z,0
2023-03-20T18:53:38.311Z,0
2023-03-20T18:54:18.726Z,0
2023-03-20T18:54:59.185Z,0
2023-03-20T18:55:39.820Z,0
2023-03-20T18:56:20.377Z,0
2023-03-20T18:57:01.056Z,0
2023-03-20T18:57:42.972Z,0
2023-03-20T18:58:22.057Z,0
2023-03-20T18:59:02.617Z,0
2023-03-20T18:59:43.047Z,0
2023-03-20T19:06:28.238Z,0
2023-03-20T19:07:08.771Z,0
2023-03-20T19:07:49.319Z,0
2023-03-20T19:08:29.776Z,0
2023-03-20T19:09:10.290Z,0
2023-03-20T19:09:50.786Z,0
2023-03-20T19:10:31.320Z,0
2023-03-20T19:11:11.833Z,0
2023-03-20T19:11:52.383Z,0
2023-03-20T19:13:13.404Z,0
2023-03-20T19:20:56.549Z,0
2023-03-20T19:21:36.990Z,0
2023-03-20T19:22:28.873Z,0
2023-03-20T19:22:57.957Z,0
2023-03-20T19:23:38.458Z,0
2023-03-20T19:24:19.014Z,0
2023-03-20T19:25:40.003Z,0
2023-03-20T19:26:20.508Z,0
2023-03-20T19:27:00.991Z,0
2023-03-20T19:33:46.317Z,0
2023-03-20T19:35:04.841Z,0
2023-03-20T19:36:02.185Z,0
2023-03-20T19:36:28.438Z,0
2023-03-20T19:37:08.868Z,0
2023-03-20T19:38:29.905Z,0
2023-03-20T19:39:10.543Z,0
2023-03-20T19:39:50.981Z,0
2023-03-20T19:46:40.535Z,0
2023-03-20T19:47:17.691Z,0
2023-03-20T19:47:58.179Z,0
2023-03-20T19:48:57.712Z,0
2023-03-20T19:49:19.908Z,0
2023-03-20T19:49:59.724Z,0
2023-03-20T19:51:20.726Z,0
2023-03-20T19:52:01.283Z,0
2023-03-20T19:58:46.544Z,0
2023-03-20T19:59:28.858Z,0
2023-03-20T20:00:57.159Z,0
2023-03-20T20:01:28.618Z,0
2023-03-20T20:02:09.125Z,0
2023-03-20T20:02:49.792Z,0
2023-03-20T20:03:30.136Z,0
2023-03-20T20:04:10.616Z,0
2023-03-20T20:04:51.144Z,0
2023-03-20T20:10:56.450Z,0
2023-03-20T20:11:36.898Z,0
2023-03-20T20:12:17.430Z,0
2023-03-20T20:12:57.954Z,0
2023-03-20T20:14:23.426Z,0
2023-03-20T20:14:59.518Z,0
2023-03-20T20:15:40.037Z,0
2023-03-20T20:16:20.602Z,0
2023-03-20T20:17:01.090Z,0
2023-03-20T20:24:26.556Z,0
2023-03-20T20:25:07.051Z,0
2023-03-20T20:25:47.561Z,0
2023-03-20T20:26:31.042Z,0
2023-03-20T20:27:16.589Z,0
2023-03-20T20:27:49.090Z,0
2023-03-20T20:28:29.659Z,0
2023-03-20T20:32:23.921Z,0
2023-03-20T20:33:05.411Z,0
2023-03-20T20:33:59.195Z,0
2023-03-20T20:35:22.232Z,0
2023-03-20T20:35:38.709Z,0
2023-03-20T20:36:11.382Z,0
2023-03-20T20:37:13.133Z,0
2023-03-20T20:38:48.538Z,0
2023-03-20T20:45:53.847Z,0
2023-03-20T20:46:34.327Z,0
2023-03-20T20:47:14.832Z,0
2023-03-20T20:47:55.340Z,0
2023-03-20T20:48:35.890Z,0
2023-03-20T20:49:19.711Z,0
2023-03-20T20:49:56.898Z,0
2023-03-20T20:50:37.414Z,0
2023-03-20T20:51:17.951Z,0
2023-03-20T20:51:58.459Z,0
2023-03-20T20:58:43.527Z,0
2023-03-20T20:59:23.936Z,0
2023-03-20T21:00:04.434Z,0
2023-03-20T21:00:51.844Z,0
2023-03-20T21:01:25.516Z,0
2023-03-20T21:02:05.928Z,0
2023-03-20T21:02:46.572Z,0
2023-03-20T21:03:26.982Z,0
2023-03-20T21:04:08.321Z,0
2023-03-20T21:05:28.435Z,0
2023-03-20T21:12:59.314Z,0
2023-03-20T21:13:34.477Z,0
2023-03-20T21:14:14.992Z,0
2023-03-20T21:14:55.500Z,0
2023-03-20T21:15:36.365Z,0
2023-03-20T21:16:16.527Z,0